createdAt,value
2022-10-26T00:02:32.260Z,3.03
2022-10-26T00:06:04.063Z,3.05
2022-10-26T00:09:15.336Z,3.00
2022-10-26T00:12:52.043Z,2.97
2022-10-26T00:16:02.183Z,2.83
2022-10-26T00:19:21.234Z,2.90
2022-10-26T00:22:25.104Z,2.80
2022-10-26T00:25:46.968Z,3.00
2022-10-26T00:29:07.033Z,2.53
2022-10-26T00:32:27.219Z,3.30
2022-10-26T00:35:45.656Z,3.33
2022-10-26T00:38:51.256Z,2.80
2022-10-26T00:42:07.053Z,3.00
2022-10-26T00:45:48.177Z,2.93
2022-10-26T00:49:07.188Z,2.97
2022-10-26T00:52:41.320Z,3.13
2022-10-26T00:55:57.068Z,3.77
2022-10-26T00:59:31.203Z,3.57
2022-10-26T01:03:00.181Z,3.60
2022-10-26T01:06:31.232Z,3.40
2022-10-26T01:09:53.338Z,4.30
2022-10-26T01:13:27.131Z,3.50
2022-10-26T01:16:52.263Z,3.13
2022-10-26T01:20:35.246Z,3.50
2022-10-26T01:23:54.400Z,3.35
2022-10-26T01:27:32.322Z,3.67
2022-10-26T01:30:57.265Z,3.57
2022-10-26T01:34:28.321Z,3.47
2022-10-26T01:37:50.380Z,3.70
2022-10-26T01:41:22.323Z,3.60
2022-10-26T01:44:41.482Z,3.53
2022-10-26T01:48:22.647Z,3.60
2022-10-26T01:51:41.274Z,3.30
2022-10-26T01:55:04.299Z,3.80
2022-10-26T01:58:26.391Z,3.40
2022-10-26T02:02:08.488Z,3.95
2022-10-26T02:05:54.423Z,3.80
2022-10-26T02:09:31.315Z,3.37
2022-10-26T02:12:50.536Z,4.00
2022-10-26T02:16:27.388Z,3.90
2022-10-26T02:19:45.631Z,3.55
2022-10-26T02:23:20.452Z,4.73
2022-10-26T02:26:38.404Z,3.90
2022-10-26T02:30:07.632Z,4.90
2022-10-26T02:33:23.589Z,3.83
2022-10-26T02:36:52.533Z,4.93
2022-10-26T02:40:14.548Z,5.13
2022-10-26T02:43:58.368Z,5.20
2022-10-26T02:47:17.478Z,4.45
2022-10-26T02:50:48.579Z,4.57
2022-10-26T02:54:07.829Z,4.23
2022-10-26T02:57:47.393Z,4.63
2022-10-26T03:01:10.617Z,5.80
2022-10-26T03:04:35.545Z,4.15
2022-10-26T03:07:45.469Z,4.77
2022-10-26T03:11:07.565Z,4.67
2022-10-26T03:14:11.638Z,4.57
2022-10-26T03:17:46.846Z,4.50
2022-10-26T03:20:53.662Z,5.23
2022-10-26T03:24:12.654Z,6.00
2022-10-26T03:27:19.603Z,6.30
2022-10-26T03:30:53.684Z,4.57
2022-10-26T03:34:14.515Z,5.60
2022-10-26T03:37:37.681Z,4.93
2022-10-26T03:40:56.665Z,5.10
2022-10-26T03:44:15.619Z,5.47
2022-10-26T03:47:19.700Z,5.30
2022-10-26T03:50:57.648Z,5.00
2022-10-26T03:54:01.636Z,5.17
2022-10-26T03:57:23.729Z,5.97
2022-10-26T04:00:33.703Z,5.50
2022-10-26T04:03:48.851Z,5.80
2022-10-26T04:07:11.796Z,4.43
2022-10-26T04:10:27.820Z,5.15
2022-10-26T04:13:37.772Z,4.97
2022-10-26T04:16:54.670Z,5.37
2022-10-26T04:19:58.813Z,4.80
2022-10-26T04:23:34.891Z,5.70
2022-10-26T04:26:53.697Z,4.77
2022-10-26T04:30:12.758Z,5.00
2022-10-26T04:33:16.860Z,5.07
2022-10-26T04:36:38.871Z,4.87
2022-10-26T04:39:56.295Z,5.13
2022-10-26T04:43:17.926Z,5.27
2022-10-26T04:46:36.848Z,4.35
2022-10-26T04:49:55.875Z,4.57
2022-10-26T04:53:12.937Z,4.60
2022-10-26T04:56:42.883Z,4.90
2022-10-26T04:59:55.965Z,4.83
2022-10-26T05:03:26.936Z,4.90
2022-10-26T05:06:31.896Z,4.75
2022-10-26T05:10:08.926Z,5.05
2022-10-26T05:16:47.943Z,5.33
2022-10-26T05:19:58.035Z,4.77
2022-10-26T05:23:32.080Z,4.80
2022-10-26T05:26:55.102Z,4.40
2022-10-26T05:30:32.625Z,4.60
2022-10-26T05:34:13.330Z,5.00
2022-10-26T05:37:52.483Z,4.23
2022-10-26T05:41:20.699Z,4.57
2022-10-26T05:44:47.286Z,4.60
2022-10-26T05:48:02.528Z,4.33
2022-10-26T05:51:47.708Z,5.22
2022-10-26T05:54:55.269Z,5.35
2022-10-26T05:58:27.219Z,4.30
2022-10-26T06:01:46.435Z,3.93
2022-10-26T06:05:18.319Z,4.05
2022-10-26T06:08:42.238Z,3.95
2022-10-26T06:12:10.134Z,4.25
2022-10-26T06:15:14.281Z,3.17
2022-10-26T06:18:52.128Z,4.10
2022-10-26T06:22:19.194Z,3.20
2022-10-26T06:25:54.150Z,3.90
2022-10-26T06:29:17.327Z,3.50
2022-10-26T06:32:37.129Z,3.00
2022-10-26T06:35:58.158Z,3.40
2022-10-26T06:39:32.270Z,3.17
2022-10-26T06:42:49.254Z,3.83
2022-10-26T06:46:26.469Z,3.40
2022-10-26T06:49:49.471Z,3.73
2022-10-26T06:53:26.345Z,3.60
2022-10-26T06:56:36.240Z,3.30
2022-10-26T07:00:07.282Z,3.07
2022-10-26T07:03:17.410Z,3.63
2022-10-26T07:06:54.230Z,3.25
2022-10-26T07:09:58.343Z,3.27
2022-10-26T07:13:21.259Z,3.00
2022-10-26T07:16:42.309Z,3.30
2022-10-26T07:20:01.372Z,3.43
2022-10-26T07:23:21.586Z,3.67
2022-10-26T07:26:53.275Z,2.93
2022-10-26T07:30:00.346Z,3.10
2022-10-26T07:33:39.438Z,3.40
2022-10-26T07:36:43.429Z,2.90
2022-10-26T07:40:06.680Z,2.90
2022-10-26T07:43:33.365Z,3.00
2022-10-26T07:46:52.419Z,3.13
2022-10-26T07:50:09.368Z,3.15
2022-10-26T07:53:28.372Z,3.10
2022-10-26T07:56:35.502Z,2.70
2022-10-26T07:59:54.471Z,2.93
2022-10-26T08:03:16.503Z,2.80
2022-10-26T08:06:39.405Z,3.05
2022-10-26T08:10:04.475Z,2.93
2022-10-26T08:13:08.520Z,3.00
2022-10-26T08:16:30.558Z,3.73
2022-10-26T08:19:34.528Z,3.30
2022-10-26T08:23:12.571Z,2.93
2022-10-26T08:26:28.575Z,2.57
2022-10-26T08:29:47.506Z,2.93
2022-10-26T08:32:56.535Z,2.80
2022-10-26T08:36:29.701Z,3.03
2022-10-26T08:39:52.159Z,2.83
2022-10-26T08:43:18.644Z,3.77
2022-10-26T08:46:37.618Z,3.53
2022-10-26T08:50:12.555Z,3.17
2022-10-26T08:53:28.634Z,3.63
2022-10-26T08:57:04.697Z,3.20
2022-10-26T09:00:23.599Z,2.50
2022-10-26T09:03:43.576Z,2.60
2022-10-26T09:06:59.710Z,2.70
2022-10-26T09:10:34.680Z,2.50
2022-10-26T09:13:58.868Z,3.00
2022-10-26T09:17:30.917Z,2.20
2022-10-26T09:21:01.843Z,2.57
2022-10-26T09:24:39.808Z,2.10
2022-10-26T09:27:58.772Z,2.80
2022-10-26T09:31:33.769Z,2.30
2022-10-26T09:34:55.768Z,2.70
2022-10-26T09:38:27.977Z,2.50
2022-10-26T09:41:47.826Z,2.70
2022-10-26T09:45:18.832Z,3.20
2022-10-26T09:48:36.726Z,2.80
2022-10-26T09:52:05.876Z,2.97
2022-10-26T09:55:12.696Z,2.63
2022-10-26T09:58:51.799Z,2.20
2022-10-26T10:02:17.670Z,2.53
2022-10-26T10:05:56.921Z,2.60
2022-10-26T10:09:25.007Z,2.15
2022-10-26T10:12:59.821Z,2.43
2022-10-26T10:16:21.882Z,2.47
2022-10-26T10:19:53.811Z,2.20
2022-10-26T10:23:21.859Z,2.20
2022-10-26T10:26:58.878Z,2.40
2022-10-26T10:30:17.981Z,2.20
2022-10-26T10:33:51.974Z,2.50
2022-10-26T10:37:10.896Z,2.60
2022-10-26T10:40:45.884Z,2.60
2022-10-26T10:44:04.953Z,2.50
2022-10-26T10:51:04.000Z,2.10
2022-10-26T10:54:45.069Z,2.53
2022-10-26T10:58:11.033Z,2.07
2022-10-26T11:01:45.192Z,2.40
2022-10-26T11:05:06.940Z,2.15
2022-10-26T11:08:37.969Z,2.37
2022-10-26T11:11:58.072Z,2.00
2022-10-26T11:15:33.273Z,2.15
2022-10-26T11:18:56.064Z,1.85
2022-10-26T11:22:30.271Z,2.40
2022-10-26T11:25:49.118Z,2.20
2022-10-26T11:29:23.088Z,1.80
2022-10-26T11:32:45.091Z,2.33
2022-10-26T11:36:19.868Z,2.40
2022-10-26T11:39:38.201Z,2.10
2022-10-26T11:43:16.134Z,1.50
2022-10-26T11:46:32.290Z,1.90
2022-10-26T11:50:05.135Z,1.90
2022-10-26T11:53:21.242Z,2.00
2022-10-26T11:56:43.342Z,2.30
2022-10-26T11:59:59.252Z,1.70
2022-10-26T12:03:30.192Z,1.40
2022-10-26T12:06:50.262Z,2.00
2022-10-26T12:10:27.266Z,2.10
2022-10-26T12:13:47.320Z,2.00
2022-10-26T12:17:18.279Z,1.90
2022-10-26T12:20:39.267Z,2.35
2022-10-26T12:24:22.224Z,1.70
2022-10-26T12:27:56.290Z,1.60
2022-10-26T12:31:48.344Z,2.25
2022-10-26T12:35:10.264Z,1.97
2022-10-26T12:39:04.471Z,1.60
2022-10-26T12:42:25.247Z,1.60
2022-10-26T12:45:48.363Z,2.30
2022-10-26T12:49:10.479Z,2.13
2022-10-26T12:52:52.756Z,1.90
2022-10-26T12:56:20.525Z,1.90
2022-10-26T12:59:55.452Z,2.20
2022-10-26T13:03:14.459Z,1.83
2022-10-26T13:06:52.397Z,2.10
2022-10-26T13:10:11.355Z,2.10
2022-10-26T13:13:45.569Z,2.63
2022-10-26T13:17:05.644Z,2.75
2022-10-26T13:20:41.319Z,2.10
2022-10-26T13:24:00.422Z,2.40
2022-10-26T13:27:57.491Z,2.00
2022-10-26T13:31:16.530Z,2.30
2022-10-26T13:34:52.640Z,2.10
2022-10-26T13:38:14.540Z,2.40
2022-10-26T13:41:49.563Z,1.90
2022-10-26T13:45:08.979Z,2.60
2022-10-26T13:48:39.576Z,2.30
2022-10-26T13:52:04.501Z,2.67
2022-10-26T13:55:33.560Z,2.63
2022-10-26T13:58:55.653Z,2.57
2022-10-26T14:02:38.692Z,2.20
2022-10-26T14:06:11.533Z,3.60
2022-10-26T14:09:38.748Z,2.70
2022-10-26T14:13:09.571Z,2.50
2022-10-26T14:16:28.752Z,2.90
2022-10-26T14:20:05.643Z,2.73
2022-10-26T14:23:24.555Z,2.75
2022-10-26T14:26:56.754Z,2.57
2022-10-26T14:30:22.407Z,2.90
2022-10-26T14:33:49.686Z,2.60
2022-10-26T14:37:05.642Z,2.60
2022-10-26T14:40:45.797Z,2.30
2022-10-26T14:44:14.705Z,2.47
2022-10-26T14:47:47.854Z,2.30
2022-10-26T14:50:51.635Z,2.17
2022-10-26T14:54:25.652Z,2.27
2022-10-26T14:57:55.641Z,2.00
2022-10-26T15:01:44.773Z,2.40
2022-10-26T15:05:03.019Z,2.80
2022-10-26T15:08:52.372Z,2.40
2022-10-26T15:12:05.978Z,2.47
2022-10-26T15:15:47.063Z,2.33
2022-10-26T15:19:02.983Z,2.15
2022-10-26T15:22:47.792Z,2.20
2022-10-26T15:26:07.012Z,2.30
2022-10-26T15:29:45.927Z,2.43
2022-10-26T15:32:50.260Z,2.03
2022-10-26T15:36:30.800Z,2.20
2022-10-26T15:39:47.796Z,2.20
2022-10-26T15:43:21.911Z,2.00
2022-10-26T15:46:40.823Z,2.25
2022-10-26T15:50:17.959Z,1.97
2022-10-26T15:53:36.831Z,2.77
2022-10-26T15:57:13.749Z,2.10
2022-10-26T16:00:29.096Z,2.83
2022-10-26T16:03:59.972Z,2.50
2022-10-26T16:07:03.875Z,2.27
2022-10-26T16:10:41.969Z,2.60
2022-10-26T16:14:02.651Z,2.60
2022-10-26T16:17:33.067Z,2.63
2022-10-26T16:20:42.936Z,2.17
2022-10-26T16:24:17.082Z,1.93
2022-10-26T16:27:34.038Z,2.60
2022-10-26T16:31:11.965Z,2.50
2022-10-26T16:34:17.143Z,2.23
2022-10-26T16:37:55.003Z,2.10
2022-10-26T16:40:59.015Z,2.47
2022-10-26T16:44:19.101Z,2.33
2022-10-26T16:47:39.019Z,2.20
2022-10-26T16:50:58.300Z,2.33
2022-10-26T16:54:17.093Z,2.53
2022-10-26T16:57:36.133Z,2.55
2022-10-26T17:00:43.269Z,2.20
2022-10-26T17:04:23.730Z,2.55
2022-10-26T17:07:35.093Z,2.43
2022-10-26T17:11:00.146Z,2.30
2022-10-26T17:14:20.130Z,2.70
2022-10-26T17:17:40.286Z,2.20
2022-10-26T17:20:57.242Z,2.20
2022-10-26T17:24:19.258Z,2.50
2022-10-26T17:27:23.214Z,2.33
2022-10-26T17:30:55.176Z,1.90
2022-10-26T17:34:03.128Z,2.65
2022-10-26T17:37:35.391Z,2.50
2022-10-26T17:40:45.205Z,1.87
2022-10-26T17:44:10.303Z,2.20
2022-10-26T17:47:17.202Z,1.80
2022-10-26T17:50:39.213Z,2.07
2022-10-26T17:54:02.297Z,1.90
2022-10-26T17:57:24.349Z,2.20
2022-10-26T18:00:35.586Z,1.87
2022-10-26T18:04:09.355Z,2.00
2022-10-26T18:07:16.298Z,2.87
2022-10-26T18:10:49.468Z,2.20
2022-10-26T18:13:53.379Z,2.97
2022-10-26T18:17:12.401Z,1.90
2022-10-26T18:20:19.327Z,2.30
2022-10-26T18:23:39.411Z,1.90
2022-10-26T18:27:02.429Z,2.47
2022-10-26T18:30:36.386Z,3.03
2022-10-26T18:33:43.390Z,2.23
2022-10-26T18:37:03.433Z,1.93
2022-10-26T18:40:07.396Z,2.57
2022-10-26T18:43:40.362Z,2.25
2022-10-26T18:47:02.503Z,2.30
2022-10-26T18:50:27.386Z,2.83
2022-10-26T18:53:34.543Z,2.07
2022-10-26T18:56:50.391Z,2.30
2022-10-26T19:00:13.528Z,1.93
2022-10-26T19:03:35.391Z,2.20
2022-10-26T19:06:54.540Z,2.63
2022-10-26T19:10:13.439Z,2.70
2022-10-26T19:13:23.476Z,3.80
2022-10-26T19:16:59.557Z,2.40
2022-10-26T19:20:07.512Z,2.77
2022-10-26T19:23:29.520Z,2.93
2022-10-26T19:26:54.364Z,2.43
2022-10-26T19:30:16.603Z,3.20
2022-10-26T19:33:40.555Z,2.57
2022-10-26T19:37:11.565Z,3.03
2022-10-26T19:40:18.661Z,2.70
2022-10-26T19:43:34.656Z,2.97
2022-10-26T19:46:53.662Z,3.00
2022-10-26T19:50:29.737Z,3.63
2022-10-26T19:54:00.519Z,2.00
2022-10-26T19:57:16.819Z,2.83
2022-10-26T20:00:36.800Z,2.40
2022-10-26T20:04:07.651Z,3.30
2022-10-26T20:07:17.625Z,2.63
2022-10-26T20:10:54.026Z,3.00
2022-10-26T20:14:15.755Z,3.00
2022-10-26T20:17:37.825Z,2.40
2022-10-26T20:21:00.746Z,2.50
2022-10-26T20:24:35.678Z,3.20
2022-10-26T20:28:01.644Z,2.45
2022-10-26T20:31:20.888Z,2.50
2022-10-26T20:34:24.742Z,2.47
2022-10-26T20:37:54.886Z,1.80
2022-10-26T20:41:14.820Z,1.90
2022-10-26T20:44:55.837Z,2.10
2022-10-26T20:47:59.760Z,2.47
2022-10-26T20:51:30.773Z,2.20
2022-10-26T20:54:49.904Z,1.90
2022-10-26T20:58:20.912Z,2.30
2022-10-26T21:01:46.976Z,2.07
2022-10-26T21:05:07.831Z,2.40
2022-10-26T21:08:11.687Z,2.10
2022-10-26T21:11:27.839Z,2.03
2022-10-26T21:14:31.858Z,2.35
2022-10-26T21:18:10.885Z,2.10
2022-10-26T21:21:26.675Z,2.60
2022-10-26T21:24:45.878Z,1.90
2022-10-26T21:28:04.917Z,2.90
2022-10-26T21:31:35.909Z,2.70
2022-10-26T21:34:55.935Z,1.90
2022-10-26T21:38:17.951Z,1.93
2022-10-26T21:41:27.931Z,3.10
2022-10-26T21:44:49.947Z,1.70
2022-10-26T21:47:57.359Z,2.73
2022-10-26T21:51:32.312Z,2.60
2022-10-26T21:54:39.044Z,2.57
2022-10-26T22:01:23.036Z,2.67
2022-10-26T22:04:42.070Z,2.37
2022-10-26T22:07:58.969Z,2.00
2022-10-26T22:11:36.100Z,1.85
2022-10-26T22:14:40.141Z,2.55
2022-10-26T22:18:14.031Z,2.85
2022-10-26T22:21:30.223Z,2.00
2022-10-26T22:25:08.100Z,2.10
2022-10-26T22:28:12.141Z,2.33
2022-10-26T22:31:50.113Z,2.03
2022-10-26T22:35:10.472Z,2.00
2022-10-26T22:38:14.182Z,1.80
2022-10-26T22:41:34.136Z,1.63
2022-10-26T22:44:53.100Z,1.50
2022-10-26T22:48:00.261Z,1.90
2022-10-26T22:51:32.183Z,2.30
2022-10-26T22:54:39.308Z,1.90
2022-10-26T22:58:21.131Z,1.70
2022-10-26T23:01:40.368Z,2.40
2022-10-26T23:04:59.266Z,2.67
2022-10-26T23:08:21.199Z,2.80
2022-10-26T23:11:49.463Z,1.65
2022-10-26T23:15:06.304Z,1.90
2022-10-26T23:18:25.196Z,2.00
2022-10-26T23:21:44.290Z,2.40
2022-10-26T23:25:06.318Z,2.07
2022-10-26T23:28:13.355Z,3.00
2022-10-26T23:31:51.381Z,1.70
2022-10-26T23:34:58.339Z,2.20
2022-10-26T23:38:17.308Z,2.50
2022-10-26T23:41:36.312Z,1.95
2022-10-26T23:44:56.459Z,2.30
2022-10-26T23:48:19.390Z,2.73
2022-10-26T23:51:38.329Z,2.65
2022-10-26T23:54:45.622Z,1.55
2022-10-26T23:58:04.365Z,1.80
